Time;durP1;ratioP1;P1;durP2;ratioP2;P2;SDS_P1;SDS_P2;PMS_P1;PMS_P2;Temp;Humidity;BMP_temperature;BMP_pressure;BME280_temperature;BME280_humidity;BME280_pressure;Samples;Min_cycle;Max_cycle;Signal;HPM_P1;HPM_P2
2022/12/28 00:01:31;;;;;;;5.38;2.00;;;;;;;6.80;62.97;100507.09;5010879;28;20058;-61
2022/12/28 00:04:00;;;;;;;5.70;2.40;;;;;;;6.82;62.31;100495.75;5011554;28;20069;-60
2022/12/28 00:06:28;;;;;;;4.53;2.13;;;;;;;6.85;62.87;100484.94;5011059;28;20497;-60
2022/12/28 00:08:57;;;;;;;5.70;2.22;;;;;;;6.90;62.60;100497.91;5012079;28;20057;-60
2022/12/28 00:11:27;;;;;;;3.80;1.80;;;;;;;6.83;62.19;100491.88;5012302;28;20065;-60
2022/12/28 00:13:54;;;;;;;4.25;2.35;;;;;;;6.85;62.67;100475.81;5012343;28;20491;-59
2022/12/28 00:16:26;;;;;;;4.30;1.58;;;;;;;6.86;62.89;100477.44;5009614;28;20049;-60
2022/12/28 00:18:53;;;;;;;5.38;2.30;;;;;;;6.84;63.14;100458.34;5015219;28;20061;-60
2022/12/28 00:21:21;;;;;;;4.38;2.10;;;;;;;6.96;62.98;100455.22;5014267;28;20053;-60
2022/12/28 00:23:52;;;;;;;6.05;2.20;;;;;;;6.88;62.84;100476.03;5015491;28;20069;-61
2022/12/28 00:26:21;;;;;;;6.55;2.08;;;;;;;6.80;62.88;100457.28;5015376;28;20057;-60
2022/12/28 00:28:49;;;;;;;4.82;1.80;;;;;;;6.84;63.37;100438.97;5015932;28;20061;-60
2022/12/28 00:31:17;;;;;;;4.60;2.08;;;;;;;6.73;62.83;100444.91;5013949;28;20057;-60
2022/12/28 00:33:45;;;;;;;5.63;1.60;;;;;;;6.84;62.85;100463.06;5014554;28;20502;-59
2022/12/28 00:36:14;;;;;;;3.78;1.80;;;;;;;6.84;62.97;100427.06;5015787;28;20522;-63
2022/12/28 00:38:42;;;;;;;10.27;2.78;;;;;;;6.98;62.62;100435.53;5015948;28;20050;-63
2022/12/28 00:41:10;;;;;;;5.05;2.28;;;;;;;6.93;62.56;100457.72;5015689;28;20054;-63
2022/12/28 00:43:38;;;;;;;4.72;2.15;;;;;;;6.94;63.02;100435.28;5015573;28;20057;-63
2022/12/28 00:46:06;;;;;;;3.55;1.83;;;;;;;6.98;63.49;100441.09;5013639;28;20487;-62
2022/12/28 00:48:33;;;;;;;6.50;2.50;;;;;;;6.87;63.59;100446.72;5015388;28;20045;-62
2022/12/28 00:51:08;;;;;;;3.60;1.80;;;;;;;6.69;64.05;100455.72;5014687;28;20053;-62
2022/12/28 00:53:35;;;;;;;6.22;2.20;;;;;;;6.87;63.68;100435.63;5015014;28;20054;-62
2022/12/28 00:56:07;;;;;;;5.13;2.00;;;;;;;6.98;63.11;100446.63;5015738;28;20054;-63
2022/12/28 00:58:34;;;;;;;4.78;1.90;;;;;;;7.08;63.24;100446.53;5014925;28;20065;-60
2022/12/28 01:01:04;;;;;;;8.60;2.50;;;;;;;7.10;62.80;100436.00;5013367;28;20443;-60
2022/12/28 01:03:34;;;;;;;4.07;1.95;;;;;;;7.04;63.83;100451.81;5015116;28;20054;-61
2022/12/28 01:06:09;;;;;;;;;;;;;;;6.83;64.08;100442.88;5015301;28;20064;-61
2022/12/28 01:08:37;;;;;;;7.65;2.08;;;;;;;7.08;63.28;100452.06;5014063;28;19928;-60
2022/12/28 01:11:08;;;;;;;5.60;2.30;;;;;;;7.16;64.17;100443.13;5015388;28;20054;-60
2022/12/28 01:13:35;;;;;;;4.60;2.58;;;;;;;7.08;63.82;100468.69;5014519;28;20054;-60
2022/12/28 01:16:12;;;;;;;3.53;2.17;;;;;;;7.08;65.88;100438.22;5013206;28;20050;-60
2022/12/28 01:18:39;;;;;;;3.70;2.28;;;;;;;7.08;66.50;100430.72;5014723;28;20072;-61
2022/12/28 01:21:11;;;;;;;4.65;1.98;;;;;;;7.14;65.99;100423.22;5013178;28;20054;-60
2022/12/28 01:23:39;;;;;;;4.93;2.15;;;;;;;7.10;66.44;100411.06;5014580;28;20057;-60
2022/12/28 01:26:07;;;;;;;4.00;2.10;;;;;;;6.90;68.15;100426.72;5015032;28;20068;-60
2022/12/28 01:28:35;;;;;;;4.10;2.15;;;;;;;6.83;68.79;100414.38;5014319;28;20058;-60
2022/12/28 01:31:07;;;;;;;6.97;2.28;;;;;;;6.97;67.82;100395.13;5013470;28;20394;-60
2022/12/28 01:33:36;;;;;;;5.13;2.20;;;;;;;7.02;69.25;100389.53;5014347;28;20080;-60
2022/12/28 01:36:07;;;;;;;6.40;2.73;;;;;;;6.87;67.93;100385.81;5013893;28;20081;-60
2022/12/28 01:38:34;;;;;;;5.05;2.85;;;;;;;6.94;67.97;100362.47;5013584;28;20057;-61
2022/12/28 01:41:02;;;;;;;4.55;1.80;;;;;;;6.82;69.23;100372.00;5014925;28;20410;-61
2022/12/28 01:43:41;;;;;;;7.03;2.20;;;;;;;6.93;68.60;100377.44;5014730;28;20062;-60
2022/12/28 01:46:15;;;;;;;8.25;2.40;;;;;;;6.93;68.39;100369.97;5012626;28;20058;-60
2022/12/28 01:48:48;;;;;;;5.80;2.40;;;;;;;6.86;68.83;100377.78;5014523;28;20479;-60
2022/12/28 01:51:16;;;;;;;5.35;2.03;;;;;;;6.91;68.96;100359.19;5013852;28;20053;-60
2022/12/28 01:53:43;;;;;;;6.50;2.10;;;;;;;6.95;69.21;100348.34;5014481;28;20054;-61
2022/12/28 01:56:11;;;;;;;5.63;2.72;;;;;;;6.71;70.83;100345.53;5011381;28;20054;-60
2022/12/28 01:58:39;;;;;;;5.18;2.05;;;;;;;6.77;70.37;100336.06;5012818;28;20491;-59
2022/12/28 02:01:07;;;;;;;6.10;2.20;;;;;;;6.82;70.74;100374.75;5013124;28;20057;-60
2022/12/28 02:03:35;;;;;;;4.75;2.08;;;;;;;6.97;70.30;100348.03;5012832;28;20054;-60
2022/12/28 02:06:09;;;;;;;5.50;2.20;;;;;;;6.95;70.45;100336.44;5012785;28;20164;-60
2022/12/28 02:08:43;;;;;;;6.45;2.50;;;;;;;6.95;70.83;100344.75;5013905;28;20058;-61
2022/12/28 02:11:13;;;;;;;4.78;2.22;;;;;;;7.05;70.72;100330.78;5014523;28;20053;-60
2022/12/28 02:13:43;;;;;;;3.83;1.98;;;;;;;6.89;70.00;100339.28;5013765;28;20054;-60
2022/12/28 02:16:11;;;;;;;3.42;1.90;;;;;;;6.98;70.71;100327.56;5012237;28;20058;-60
2022/12/28 02:18:39;;;;;;;5.90;2.30;;;;;;;6.99;70.90;100310.66;5010864;28;20042;-61
2022/12/28 02:21:30;;;;;;;3.92;2.20;;;;;;;7.10;69.88;100347.34;5004902;28;20046;-60
2022/12/28 02:24:22;;;;;;;2.88;1.88;;;;;;;7.00;69.74;100314.25;4994259;28;20050;-61
2022/12/28 02:26:57;;;;;;;4.63;2.15;;;;;;;7.11;70.23;100297.19;4990428;28;20058;-61
2022/12/28 02:29:41;;;;;;;6.50;2.10;;;;;;;7.29;69.28;100301.13;4994235;28;20487;-61
2022/12/28 02:32:26;;;;;;;5.40;2.00;;;;;;;7.15;69.33;100286.34;5011798;28;20049;-61
2022/12/28 02:35:01;;;;;;;4.65;2.40;;;;;;;7.28;69.78;100285.63;5013886;28;20057;-59
2022/12/28 02:37:34;;;;;;;4.70;2.38;;;;;;;7.32;69.22;100283.91;5013369;28;20053;-60
2022/12/28 02:40:06;;;;;;;5.00;1.98;;;;;;;7.35;69.19;100279.75;5012511;28;20422;-61
2022/12/28 02:42:39;;;;;;;3.63;2.05;;;;;;;7.31;69.55;100268.41;5012506;28;20391;-60
2022/12/28 02:51:11;;;;;;;3.67;2.15;;;;;;;7.48;69.13;100250.47;5014225;28;20060;-60
2022/12/28 02:53:58;;;;;;;4.78;2.30;;;;;;;7.39;69.34;100227.28;5013353;28;20054;-61
2022/12/28 02:56:33;;;;;;;5.93;2.75;;;;;;;7.51;69.26;100241.53;5011441;28;20064;-60
2022/12/28 02:59:29;;;;;;;6.68;2.35;;;;;;;7.57;68.71;100240.34;5013160;28;20069;-61
2022/12/28 03:02:11;;;;;;;6.78;2.22;;;;;;;7.63;69.73;100232.78;5012396;28;20491;-60
2022/12/28 03:04:54;;;;;;;6.95;2.80;;;;;;;7.59;68.67;100221.47;5013067;28;20061;-60
2022/12/28 03:10:19;;;;;;;4.85;2.40;;;;;;;7.51;69.03;100211.03;5015771;28;20057;-60
2022/12/28 03:12:50;;;;;;;5.03;2.13;;;;;;;7.57;70.46;100173.81;5011687;28;20056;-60
2022/12/28 03:15:29;;;;;;;4.95;2.58;;;;;;;7.51;69.38;100211.88;5013342;28;20514;-60
2022/12/28 03:31:57;;;;;;;3.65;2.08;;;;;;;7.59;70.94;100196.50;5017305;28;20056;-59
2022/12/28 03:34:26;;;;;;;5.03;2.38;;;;;;;7.69;70.51;100173.34;5012455;28;20061;-61
2022/12/28 03:36:59;;;;;;;4.38;2.33;;;;;;;7.73;69.76;100205.72;5012508;28;20058;-60
2022/12/28 03:39:36;;;;;;;4.45;2.20;;;;;;;7.64;71.32;100149.31;5012249;28;20399;-60
2022/12/28 03:45:06;;;;;;;5.95;2.30;;;;;;;7.55;70.61;100151.13;5012057;28;20449;-60
2022/12/28 03:47:35;;;;;;;7.20;2.50;;;;;;;7.66;70.25;100154.53;4992903;28;20411;-59
2022/12/28 03:50:05;;;;;;;6.97;2.47;;;;;;;7.53;71.36;100134.78;4993432;28;20061;-59
2022/12/28 03:52:36;;;;;;;3.65;2.28;;;;;;;7.72;71.29;100137.53;4992312;28;20499;-59
2022/12/28 03:55:06;;;;;;;3.63;2.35;;;;;;;7.59;72.03;100126.41;4995124;28;20050;-60
2022/12/28 03:57:35;;;;;;;4.25;2.60;;;;;;;7.64;71.44;100145.72;5012123;28;20053;-59
2022/12/28 04:00:03;;;;;;;4.78;2.65;;;;;;;7.64;71.27;100131.84;5010715;28;20050;-60
2022/12/28 04:02:30;;;;;;;3.40;2.42;;;;;;;7.71;71.93;100118.44;5011665;28;20053;-60
2022/12/28 04:04:58;;;;;;;3.53;2.22;;;;;;;7.81;71.23;100111.88;5012658;28;20372;-59
2022/12/28 04:07:26;;;;;;;5.80;2.72;;;;;;;7.62;71.20;100118.31;5012372;28;20057;-59
2022/12/28 04:09:54;;;;;;;6.32;2.40;;;;;;;7.82;70.70;100099.66;5010157;28;20046;-59
2022/12/28 04:12:21;;;;;;;4.70;2.40;;;;;;;7.71;72.02;100124.81;5012644;28;20410;-59
2022/12/28 04:14:48;;;;;;;3.83;2.40;;;;;;;7.87;70.80;100124.53;5011000;28;20065;-60
2022/12/28 04:17:21;;;;;;;3.78;2.30;;;;;;;7.89;71.64;100102.84;5012292;28;20054;-59
2022/12/28 04:19:49;;;;;;;4.28;2.10;;;;;;;7.87;72.34;100114.28;5008891;28;20057;-59
2022/12/28 04:22:30;;;;;;;3.47;2.00;;;;;;;7.85;71.66;100102.66;5012290;28;20061;-59
2022/12/28 04:25:00;;;;;;;2.95;1.95;;;;;;;7.88;71.72;100101.22;5010414;28;20057;-59
2022/12/28 04:27:31;;;;;;;;;;;;;;;8.03;71.50;100097.34;5012511;28;20053;-59
2022/12/28 04:30:17;;;;;;;3.10;2.20;;;;;;;8.05;71.11;100108.94;5011173;28;19921;-60
2022/12/28 04:32:45;;;;;;;5.72;2.20;;;;;;;8.01;71.80;100063.53;4993333;28;20384;-61
2022/12/28 04:35:13;;;;;;;5.05;2.10;;;;;;;8.05;70.97;100104.22;4992642;28;20054;-61
2022/12/28 04:37:42;;;;;;;5.28;2.47;;;;;;;8.07;70.27;100092.81;4992091;28;20062;-61
2022/12/28 04:40:11;;;;;;;4.43;2.40;;;;;;;7.77;71.76;100083.97;4993567;28;20058;-62
2022/12/28 04:42:39;;;;;;;4.63;2.20;;;;;;;8.02;72.33;100071.56;5011474;28;20499;-60
2022/12/28 04:45:28;;;;;;;3.97;2.25;;;;;;;8.07;71.79;100071.44;5011302;28;20057;-61
2022/12/28 04:48:07;;;;;;;4.75;2.33;;;;;;;7.87;72.08;100083.78;4989244;28;20057;-61
2022/12/28 04:50:39;;;;;;;4.32;2.55;;;;;;;8.00;71.52;100057.19;4992065;28;20065;-61
2022/12/28 04:55:59;;;;;;;7.38;2.60;;;;;;;8.10;71.64;100062.50;4985502;28;20522;-61
2022/12/28 04:58:26;;;;;;;4.18;2.35;;;;;;;8.20;71.67;100041.25;5004864;28;20057;-61
2022/12/28 05:00:54;;;;;;;4.10;2.00;;;;;;;8.04;71.82;100074.00;5010793;28;20058;-60
2022/12/28 05:03:39;;;;;;;4.95;2.25;;;;;;;8.25;71.46;100049.44;5011957;28;20402;-60
2022/12/28 05:06:12;;;;;;;2.70;2.45;;;;;;;8.26;69.98;100121.28;5015324;28;20046;-61
2022/12/28 05:09:11;;;;;;;3.97;2.58;;;;;;;8.27;71.43;100049.97;5015067;28;20053;-61
2022/12/28 05:11:40;;;;;;;3.67;2.25;;;;;;;8.19;71.31;100045.13;5001314;28;20073;-60
2022/12/28 05:14:13;;;;;;;6.63;2.13;;;;;;;8.18;71.62;100049.88;5014326;28;20050;-60
2022/12/28 05:16:44;;;;;;;6.35;2.30;;;;;;;8.30;71.50;100047.41;5013535;28;20076;-60
2022/12/28 05:19:12;;;;;;;2.85;1.90;;;;;;;8.38;71.63;100034.75;5015188;28;20518;-61
2022/12/28 05:21:48;;;;;;;4.22;2.60;;;;;;;8.19;73.78;100031.25;5015030;28;20064;-61
2022/12/28 05:24:36;;;;;;;3.28;2.50;;;;;;;8.20;75.25;100046.78;5015358;28;20061;-61
2022/12/28 05:27:06;;;;;;;4.75;2.95;;;;;;;7.83;77.47;100024.50;5015118;28;20065;-60
2022/12/28 05:29:48;;;;;;;5.20;3.20;;;;;;;7.79;81.01;100017.94;5014320;28;20506;-61
2022/12/28 05:32:18;;;;;;;5.00;2.95;;;;;;;7.77;81.08;100027.66;5007322;28;20054;-60
2022/12/28 05:35:08;;;;;;;4.88;2.90;;;;;;;7.75;79.77;100033.53;5013066;28;20054;-60
2022/12/28 05:37:47;;;;;;;5.38;3.05;;;;;;;7.92;79.99;100047.59;5008429;28;20426;-60
2022/12/28 05:40:24;;;;;;;4.97;2.70;;;;;;;7.97;79.56;100059.72;5014270;28;20511;-60
2022/12/28 05:43:02;;;;;;;3.95;2.47;;;;;;;7.93;77.57;100042.88;5014254;28;20060;-60
2022/12/28 05:45:42;;;;;;;5.07;2.60;;;;;;;7.95;78.42;100048.13;4993487;28;20054;-62
2022/12/28 05:48:09;;;;;;;4.65;2.60;;;;;;;8.05;78.00;100039.59;5014964;28;20050;-60
2022/12/28 05:50:37;;;;;;;5.40;2.75;;;;;;;7.88;78.15;100037.44;5014713;28;20050;-61
2022/12/28 05:53:05;;;;;;;4.43;2.40;;;;;;;8.04;78.72;100038.78;5014667;28;20052;-60
2022/12/28 05:55:33;;;;;;;3.08;2.25;;;;;;;8.16;78.36;100029.13;5014263;28;20060;-60
2022/12/28 05:58:02;;;;;;;4.72;2.28;;;;;;;8.10;78.01;100026.44;5014426;28;20399;-60
2022/12/28 06:00:30;;;;;;;4.28;2.30;;;;;;;8.28;77.58;100040.53;4990452;28;20050;-60
2022/12/28 06:06:23;;;;;;;4.45;2.20;;;;;;;8.34;77.07;100042.06;4934890;29;20047;-59
2022/12/28 06:11:34;;;;;;;3.25;2.35;;;;;;;8.26;77.18;100015.03;4971079;28;20062;-59
2022/12/28 06:14:12;;;;;;;4.25;2.45;;;;;;;8.14;76.79;100035.78;4994833;28;20058;-64
2022/12/28 06:16:50;;;;;;;2.95;1.95;;;;;;;8.34;76.74;100028.19;5009810;28;20069;-60
2022/12/28 06:19:20;;;;;;;2.88;1.95;;;;;;;8.25;76.19;100030.88;5014211;28;20427;-59
2022/12/28 06:21:48;;;;;;;3.55;1.90;;;;;;;8.38;76.61;100009.78;5010308;28;20045;-62
2022/12/28 06:24:21;;;;;;;3.72;1.90;;;;;;;8.52;75.52;100013.38;5013930;28;20053;-60
2022/12/28 06:27:14;;;;;;;3.25;1.80;;;;;;;8.56;75.54;100015.53;5014339;28;20065;-60
2022/12/28 06:29:52;;;;;;;5.15;2.00;;;;;;;8.61;75.13;100020.94;4993983;28;20137;-60
2022/12/28 06:35:28;;;;;;;2.55;1.65;;;;;;;8.67;77.19;100003.03;5012426;28;20513;-59
2022/12/28 06:37:56;;;;;;;2.30;1.58;;;;;;;8.58;76.34;100021.59;5013160;28;20064;-60
2022/12/28 06:40:44;;;;;;;3.13;1.90;;;;;;;8.58;77.16;100013.25;5013234;28;20054;-60
2022/12/28 06:43:21;;;;;;;2.97;1.77;;;;;;;8.61;77.23;100009.84;5006568;28;20407;-60
2022/12/28 06:51:51;;;;;;;1.88;1.50;;;;;;;8.26;82.55;100009.50;4931382;29;20066;-61
2022/12/28 06:54:24;;;;;;;2.60;1.88;;;;;;;8.25;81.75;100014.22;4992607;28;20054;-60
2022/12/28 06:56:52;;;;;;;3.20;2.10;;;;;;;8.39;81.39;100016.97;5013396;28;20060;-60
2022/12/28 06:59:23;;;;;;;3.05;1.95;;;;;;;8.42;80.59;100030.25;5011942;28;20076;-59
2022/12/28 07:05:16;;;;;;;3.05;1.67;;;;;;;8.63;78.87;100018.69;4896036;29;20079;-59
2022/12/28 07:10:39;;;;;;;2.90;1.50;;;;;;;8.58;79.31;100008.53;4869314;29;20165;-64
2022/12/28 07:13:07;;;;;;;2.40;1.70;;;;;;;8.56;79.29;100019.13;4896903;29;20064;-64
2022/12/28 07:16:17;;;;;;;2.97;1.70;;;;;;;8.59;78.86;100018.50;4964541;28;20527;-64
2022/12/28 07:27:53;;;;;;;3.55;1.60;;;;;;;8.67;79.45;100017.75;4878850;29;20123;-64
2022/12/28 07:30:54;;;;;;;1.95;1.30;;;;;;;8.72;78.42;100002.94;4910441;29;20089;-64
2022/12/28 07:36:39;;;;;;;2.22;1.50;;;;;;;8.68;79.31;99996.38;4873633;29;20434;-64
2022/12/28 07:39:11;;;;;;;2.17;1.48;;;;;;;8.76;79.14;100006.72;4957996;28;20059;-64
2022/12/28 07:41:39;;;;;;;2.28;1.30;;;;;;;8.60;78.10;100000.69;4992613;28;20054;-63
2022/12/28 07:44:07;;;;;;;3.13;1.55;;;;;;;8.71;78.62;99998.50;4998849;28;20046;-63
2022/12/28 07:46:36;;;;;;;2.60;1.48;;;;;;;8.71;79.05;99993.78;5012507;28;20053;-64
2022/12/28 07:52:11;;;;;;;2.33;1.33;;;;;;;8.87;78.11;99985.91;4999826;28;20050;-64
2022/12/28 07:55:04;;;;;;;2.85;1.83;;;;;;;8.81;78.98;99989.94;5012366;28;20406;-64
2022/12/28 07:57:35;;;;;;;4.10;1.80;;;;;;;8.77;79.02;99986.16;5011667;28;20065;-65
2022/12/28 08:00:19;;;;;;;2.63;1.25;;;;;;;8.65;78.72;99983.09;5010387;28;20065;-64
2022/12/28 08:02:47;;;;;;;2.20;1.50;;;;;;;8.79;78.55;99996.94;5012142;28;20050;-64
2022/12/28 08:05:18;;;;;;;3.30;1.80;;;;;;;8.80;79.04;99991.09;5010737;28;20053;-64
2022/12/28 08:07:50;;;;;;;2.50;1.40;;;;;;;8.90;78.22;99978.88;5012455;28;20061;-65
2022/12/28 08:10:45;;;;;;;3.17;1.77;;;;;;;9.05;78.36;99988.78;5012110;28;20050;-64
2022/12/28 08:13:33;;;;;;;3.08;1.30;;;;;;;8.93;77.80;99989.38;5010462;28;20046;-63
2022/12/28 08:19:06;;;;;;;1.90;1.33;;;;;;;9.07;77.94;99983.75;5004467;28;20081;-63
2022/12/28 08:21:36;;;;;;;4.25;1.80;;;;;;;9.18;77.78;99979.59;5008775;28;20494;-63
2022/12/28 08:24:06;;;;;;;1.70;1.20;;;;;;;9.03;77.71;99978.03;5011429;28;20054;-63
2022/12/28 08:26:39;;;;;;;5.70;1.80;;;;;;;9.11;77.04;99979.19;5007860;28;20049;-63
2022/12/28 08:29:19;;;;;;;2.10;1.45;;;;;;;9.05;77.78;99986.03;5005000;28;20059;-64
2022/12/28 08:31:56;;;;;;;1.58;1.00;;;;;;;9.11;76.95;99991.16;5004920;28;20054;-66
2022/12/28 08:34:25;;;;;;;1.88;1.23;;;;;;;9.24;77.05;99996.94;5008239;28;20434;-64
2022/12/28 08:37:02;;;;;;;2.13;1.30;;;;;;;9.15;77.43;99980.22;5005266;28;20056;-64
2022/12/28 08:39:40;;;;;;;2.50;1.02;;;;;;;9.40;76.08;99987.06;5013543;28;20061;-65
2022/12/28 08:42:22;;;;;;;1.55;1.02;;;;;;;9.35;76.08;99990.00;5013732;28;20058;-63
2022/12/28 08:44:52;;;;;;;1.90;1.10;;;;;;;9.30;76.80;99984.53;5009873;28;20050;-62
2022/12/28 08:50:38;;;;;;;;;;;;;;;;;;;;;
2022/12/28 08:53:20;;;;;;;2.28;1.40;;;;;;;9.39;76.80;99981.84;5014715;28;20483;-63
2022/12/28 08:55:48;;;;;;;1.52;1.00;;;;;;;9.38;76.55;99982.97;5012634;28;20054;-63
2022/12/28 08:58:20;;;;;;;1.55;1.17;;;;;;;9.43;76.64;99978.09;5013388;28;20065;-63
2022/12/28 09:00:55;;;;;;;2.35;1.10;;;;;;;9.51;76.14;99973.72;5013349;28;20061;-63
2022/12/28 09:03:25;;;;;;;1.50;0.95;;;;;;;9.39;75.95;100012.41;5014136;28;20061;-63
2022/12/28 09:05:56;;;;;;;1.77;1.10;;;;;;;9.51;75.33;99976.47;5013926;28;20411;-63
2022/12/28 09:08:24;;;;;;;2.60;1.38;;;;;;;9.29;76.96;99986.50;5010857;28;20046;-63
2022/12/28 09:13:35;;;;;;;2.53;1.20;;;;;;;9.50;75.68;99985.97;5009291;28;20118;-63
2022/12/28 09:16:13;;;;;;;2.22;1.05;;;;;;;9.59;75.79;99983.25;5010142;28;20050;-64
2022/12/28 09:18:59;;;;;;;2.42;1.10;;;;;;;9.66;75.51;99995.56;5013796;28;20046;-63
2022/12/28 09:24:35;;;;;;;2.95;1.25;;;;;;;9.86;74.32;99999.72;5012348;28;20061;-63
2022/12/28 09:27:36;;;;;;;2.83;1.38;;;;;;;9.81;74.14;99991.53;5013078;28;20049;-64
2022/12/28 09:30:14;;;;;;;2.10;0.90;;;;;;;10.04;72.98;99997.81;5011781;28;20057;-63
2022/12/28 09:35:47;;;;;;;2.38;1.17;;;;;;;9.86;72.97;99994.16;5013101;28;20069;-63
2022/12/28 09:38:26;;;;;;;2.30;1.02;;;;;;;10.22;72.66;99970.84;5014008;28;20414;-64
2022/12/28 09:41:13;;;;;;;1.70;1.00;;;;;;;10.40;71.67;99995.97;5011112;28;20414;-63
2022/12/28 09:43:55;;;;;;;1.50;0.90;;;;;;;10.36;71.10;99979.09;5012551;28;20056;-63
2022/12/28 09:46:46;;;;;;;;;;;;;;;;;;;;;
2022/12/28 09:52:13;;;;;;;2.55;1.10;;;;;;;10.30;71.76;99983.19;5012824;28;20057;-63
2022/12/28 09:54:55;;;;;;;1.77;1.10;;;;;;;10.42;71.01;99980.59;5011308;28;20513;-63
2022/12/28 09:57:33;;;;;;;2.25;0.93;;;;;;;10.38;71.29;99978.78;5003000;28;20056;-63
2022/12/28 10:00:02;;;;;;;3.38;1.00;;;;;;;10.15;71.71;100001.13;5010348;28;20053;-63
2022/12/28 10:02:35;;;;;;;2.65;1.20;;;;;;;10.32;71.04;99989.25;5013557;28;20053;-65
2022/12/28 10:05:09;;;;;;;2.75;1.00;;;;;;;10.15;71.94;99974.09;5012569;28;20094;-63
2022/12/28 10:07:40;;;;;;;2.63;1.00;;;;;;;10.27;71.56;99970.72;5014440;28;20410;-63
2022/12/28 10:10:13;;;;;;;1.65;1.17;;;;;;;10.50;71.63;99963.06;5010321;28;20053;-63
2022/12/28 10:12:47;;;;;;;2.50;1.20;;;;;;;10.66;70.72;99976.50;5009174;28;20054;-63
2022/12/28 10:15:18;;;;;;;2.47;1.20;;;;;;;10.64;70.51;99968.47;5012847;28;20418;-64
2022/12/28 10:17:50;;;;;;;1.90;1.00;;;;;;;10.77;69.83;99955.50;5011265;28;20060;-63
2022/12/28 10:20:27;;;;;;;2.13;0.98;;;;;;;10.77;70.08;99963.88;5013036;28;20061;-63
2022/12/28 10:23:01;;;;;;;1.70;0.90;;;;;;;10.72;70.64;99955.69;5012760;28;20050;-64
2022/12/28 10:26:11;;;;;;;2.53;1.02;;;;;;;10.83;70.08;99964.53;5010915;28;20045;-63
2022/12/28 10:28:47;;;;;;;2.35;1.10;;;;;;;10.95;69.99;99946.00;5012318;28;20061;-62
2022/12/28 10:31:35;;;;;;;1.90;1.23;;;;;;;10.98;68.78;99950.09;5011252;28;20494;-64
2022/12/28 10:34:19;;;;;;;2.22;0.90;;;;;;;10.95;68.92;99951.56;5010199;28;20050;-63
2022/12/28 10:37:04;;;;;;;1.60;1.08;;;;;;;10.96;68.57;99942.09;5012347;28;20054;-64
2022/12/28 10:39:34;;;;;;;1.75;1.00;;;;;;;10.90;68.90;99945.38;5009029;28;20057;-64
2022/12/28 10:42:41;;;;;;;1.30;0.80;;;;;;;10.91;69.37;99936.66;5012303;28;20502;-63
2022/12/28 10:45:34;;;;;;;1.67;0.90;;;;;;;10.78;68.76;99940.47;5011706;28;20050;-64
2022/12/28 10:51:32;;;;;;;2.00;1.00;;;;;;;10.94;68.60;99936.03;5005632;28;20536;-64
2022/12/28 10:54:31;;;;;;;2.63;1.10;;;;;;;10.97;68.63;99920.59;5008120;28;20419;-63
2022/12/28 10:57:02;;;;;;;1.38;1.00;;;;;;;10.97;68.78;99926.97;5007365;28;20535;-63
2022/12/28 10:59:53;;;;;;;1.88;1.00;;;;;;;11.19;68.36;99916.75;5011339;28;20069;-63
2022/12/28 11:02:28;;;;;;;2.13;1.20;;;;;;;11.07;69.09;99913.88;5008991;28;20058;-62
2022/12/28 11:05:00;;;;;;;2.03;1.00;;;;;;;11.08;69.22;99918.28;5006829;28;20051;-63
2022/12/28 11:07:35;;;;;;;3.00;1.30;;;;;;;11.24;68.26;99904.63;5005684;28;20054;-64
2022/12/28 11:10:31;;;;;;;1.90;1.17;;;;;;;11.26;67.53;99886.41;5012294;28;20124;-63
2022/12/28 11:13:05;;;;;;;2.38;1.05;;;;;;;11.17;68.58;99886.44;4984754;28;20068;-62
2022/12/28 11:15:36;;;;;;;3.60;1.20;;;;;;;11.22;67.48;99877.09;5006344;28;20072;-64
2022/12/28 11:18:22;;;;;;;1.88;1.10;;;;;;;11.13;67.58;99870.72;5007621;28;20065;-63
2022/12/28 11:20:52;;;;;;;1.67;0.85;;;;;;;11.37;67.66;99873.72;5008553;28;20049;-63
2022/12/28 11:23:37;;;;;;;;;;;;;;;11.18;67.70;99873.31;5011357;28;20054;-64
2022/12/28 11:26:09;;;;;;;2.53;1.00;;;;;;;11.28;66.98;99884.13;5012150;28;19944;-65
2022/12/28 11:28:36;;;;;;;2.88;1.48;;;;;;;11.42;66.62;99869.94;5012570;28;20485;-65
2022/12/28 11:31:05;;;;;;;1.52;1.00;;;;;;;11.51;66.86;99870.72;5011648;28;20046;-64
2022/12/28 11:33:38;;;;;;;2.28;1.48;;;;;;;11.48;65.87;99856.63;5011808;28;20418;-63
2022/12/28 11:36:06;;;;;;;2.60;1.23;;;;;;;11.62;65.88;99851.63;5012887;28;20053;-63
2022/12/28 11:38:49;;;;;;;5.07;1.40;;;;;;;11.84;65.34;99852.50;5012704;28;20053;-63
2022/12/28 11:41:42;;;;;;;2.38;1.20;;;;;;;11.82;64.86;99871.53;5012904;28;20065;-63
2022/12/28 11:44:52;;;;;;;;;;;;;;;;;;;;;
2022/12/28 11:47:36;;;;;;;1.60;0.93;;;;;;;11.90;65.10;99873.50;5012822;28;20050;-64
2022/12/28 11:54:35;;;;;;;1.45;0.82;;;;;;;11.72;65.34;99848.47;5009438;28;20061;-63
2022/12/28 12:00:52;;;;;;;3.28;1.30;;;;;;;12.28;63.91;99834.28;5004093;28;20062;-63
2022/12/28 12:03:22;;;;;;;2.40;1.15;;;;;;;12.03;63.54;99852.06;5012832;28;20064;-63
2022/12/28 12:05:53;;;;;;;2.13;1.00;;;;;;;11.96;64.34;99842.25;5012650;28;20057;-63
2022/12/28 12:08:53;;;;;;;;;;;;;;;;;;;;;
2022/12/28 12:11:32;;;;;;;;;;;;;;;11.73;64.56;99864.03;5012114;28;20046;-63
2022/12/28 12:14:02;;;;;;;2.40;1.25;;;;;;;11.55;64.90;99831.84;5012875;28;20401;-62
2022/12/28 12:16:44;;;;;;;1.70;1.05;;;;;;;11.50;65.09;99837.59;5016746;28;20057;-63
2022/12/28 12:19:22;;;;;;;1.60;1.00;;;;;;;11.69;64.74;99821.22;5016160;28;20050;-63
2022/12/28 12:22:02;;;;;;;2.95;1.50;;;;;;;11.56;65.35;99822.31;5016292;28;20046;-62
2022/12/28 12:24:36;;;;;;;1.58;1.00;;;;;;;11.56;65.42;99827.88;5016430;28;20065;-62
2022/12/28 12:27:32;;;;;;;2.30;1.10;;;;;;;11.52;65.85;99824.94;5014082;28;20061;-61
2022/12/28 12:33:34;;;;;;;2.08;1.50;;;;;;;11.40;66.02;99826.81;4994816;28;20066;-63
2022/12/28 12:36:18;;;;;;;2.38;1.42;;;;;;;11.35;66.43;99831.44;5015887;28;20414;-62
2022/12/28 12:42:36;;;;;;;3.13;1.40;;;;;;;11.25;66.63;99814.25;5013211;28;20053;-62
2022/12/28 12:45:15;;;;;;;2.20;1.38;;;;;;;11.23;67.33;99809.00;5003868;28;20486;-62
2022/12/28 12:48:12;;;;;;;2.70;1.50;;;;;;;11.08;66.73;99809.59;5012206;28;20056;-67
2022/12/28 12:51:26;;;;;;;3.28;1.50;;;;;;;11.09;66.63;99800.91;5008993;28;20057;-65
2022/12/28 12:54:20;;;;;;;4.47;1.70;;;;;;;11.22;66.67;99815.75;5014470;28;20495;-65
2022/12/28 12:57:02;;;;;;;5.00;2.15;;;;;;;11.29;66.45;99793.72;5013366;28;20061;-65
2022/12/28 12:59:54;;;;;;;3.40;1.70;;;;;;;11.42;65.45;99805.00;5004635;28;20049;-66
2022/12/28 13:02:38;;;;;;;2.25;1.30;;;;;;;11.43;65.42;99804.66;5013474;28;20050;-65
2022/12/28 13:05:30;;;;;;;4.43;1.50;;;;;;;11.17;66.38;99808.41;5014958;28;20486;-67
2022/12/28 13:08:03;;;;;;;4.60;2.03;;;;;;;11.06;68.02;99818.28;5013110;28;20053;-66
2022/12/28 13:10:34;;;;;;;3.72;1.70;;;;;;;10.72;69.89;99819.22;5013615;28;20060;-68
2022/12/28 13:13:18;;;;;;;;;;;;;;;;;;;;;
2022/12/28 13:15:59;;;;;;;2.85;1.50;;;;;;;10.58;70.49;99811.03;4995541;28;20046;-68
2022/12/28 13:18:26;;;;;;;;;;;;;;;10.55;70.38;99829.22;5013467;28;20054;-68
2022/12/28 13:20:58;;;;;;;5.05;1.90;;;;;;;10.36;70.41;99818.44;5014962;28;19928;-69
2022/12/28 13:24:06;;;;;;;2.47;1.60;;;;;;;10.30;72.18;99841.22;5015533;28;20054;-67
2022/12/28 13:26:34;;;;;;;3.30;1.67;;;;;;;10.23;72.24;99826.97;5007643;28;20050;-68
2022/12/28 13:29:09;;;;;;;4.82;1.75;;;;;;;10.07;71.16;99819.06;5015567;28;20054;-67
2022/12/28 13:31:48;;;;;;;6.03;1.58;;;;;;;10.12;70.85;99813.38;5010976;28;20422;-67
2022/12/28 13:39:46;;;;;;;3.20;1.60;;;;;;;10.24;73.38;99793.22;5005296;28;20518;-68
2022/12/28 13:42:20;;;;;;;3.30;1.50;;;;;;;10.24;71.71;99793.22;5014350;28;20050;-68
2022/12/28 13:44:56;;;;;;;3.55;1.50;;;;;;;10.06;70.88;99781.28;5015295;28;20050;-67
2022/12/28 13:47:33;;;;;;;2.88;1.65;;;;;;;10.16;70.44;99764.25;5013488;28;20050;-65
2022/12/28 13:50:04;;;;;;;3.17;1.40;;;;;;;10.19;69.87;99770.31;5014419;28;20050;-65
2022/12/28 13:52:34;;;;;;;3.00;1.67;;;;;;;10.23;70.11;99744.28;5012214;28;20486;-67
2022/12/28 13:55:09;;;;;;;3.72;1.50;;;;;;;10.21;70.54;99754.09;5013533;28;20054;-66
2022/12/28 13:57:44;;;;;;;3.20;1.30;;;;;;;10.36;70.05;99743.28;5015098;28;20050;-68
2022/12/28 14:00:17;;;;;;;4.00;1.75;;;;;;;10.42;69.42;99738.38;5013176;28;20061;-68
2022/12/28 14:05:44;;;;;;;2.33;1.30;;;;;;;10.34;68.86;99728.06;5005352;28;20125;-66
2022/12/28 14:08:24;;;;;;;2.92;1.38;;;;;;;10.33;69.21;99741.19;5011042;28;20061;-66
2022/12/28 14:10:53;;;;;;;4.45;1.20;;;;;;;10.39;69.73;99722.31;5011768;28;20042;-68